Map

Track Data

SID SEASON NUMBER BASIN SUBBASIN NAME ISO_TIME NATURE LAT LON WMO_WIND WMO_PRES WMO_AGENCY TRACK_TYPE DIST2LAND LANDFALL IFLAG USA_AGENCY USA_ATCF_ID USA_LAT USA_LON USA_RECORD USA_STATUS USA_WIND USA_PRES USA_SSHS USA_R34_NE USA_R34_SE USA_R34_SW USA_R34_NW USA_R50_NE USA_R50_SE USA_R50_SW USA_R50_NW USA_R64_NE USA_R64_SE USA_R64_SW USA_R64_NW USA_POCI USA_ROCI USA_RMW USA_EYE TOKYO_LAT TOKYO_LON TOKYO_GRADE TOKYO_WIND TOKYO_PRES TOKYO_R50_DIR TOKYO_R50_LONG TOKYO_R50_SHORT TOKYO_R30_DIR TOKYO_R30_LONG TOKYO_R30_SHORT TOKYO_LAND CMA_LAT CMA_LON CMA_CAT CMA_WIND CMA_PRES HKO_LAT HKO_LON HKO_CAT HKO_WIND HKO_PRES NEWDELHI_LAT NEWDELHI_LON NEWDELHI_GRADE NEWDELHI_WIND NEWDELHI_PRES NEWDELHI_CI NEWDELHI_DP NEWDELHI_POCI REUNION_LAT REUNION_LON REUNION_TYPE REUNION_WIND REUNION_PRES REUNION_TNUM REUNION_CI REUNION_RMW REUNION_R34_NE REUNION_R34_SE REUNION_R34_SW REUNION_R34_NW REUNION_R50_NE REUNION_R50_SE REUNION_R50_SW REUNION_R50_NW REUNION_R64_NE REUNION_R64_SE REUNION_R64_SW REUNION_R64_NW BOM_LAT BOM_LON BOM_TYPE BOM_WIND BOM_PRES BOM_TNUM BOM_CI BOM_RMW BOM_R34_NE BOM_R34_SE BOM_R34_SW BOM_R34_NW BOM_R50_NE BOM_R50_SE BOM_R50_SW BOM_R50_NW BOM_R64_NE BOM_R64_SE BOM_R64_SW BOM_R64_NW BOM_ROCI BOM_POCI BOM_EYE BOM_POS_METHOD BOM_PRES_METHOD NADI_LAT NADI_LON NADI_CAT NADI_WIND NADI_PRES WELLINGTON_LAT WELLINGTON_LON WELLINGTON_WIND WELLINGTON_PRES DS824_LAT DS824_LON DS824_STAGE DS824_WIND DS824_PRES TD9636_LAT TD9636_LON TD9636_STAGE TD9636_WIND TD9636_PRES TD9635_LAT TD9635_LON TD9635_WIND TD9635_PRES TD9635_ROCI NEUMANN_LAT NEUMANN_LON NEUMANN_CLASS NEUMANN_WIND NEUMANN_PRES MLC_LAT MLC_LON MLC_CLASS MLC_WIND MLC_PRES USA_GUST BOM_GUST BOM_GUST_PER REUNION_GUST REUNION_GUST_PER USA_SEAHGT USA_SEARAD_NE USA_SEARAD_SE USA_SEARAD_SW USA_SEARAD_NW STORM_SPEED STORM_DIR
1944285N36320 1944 69 NA NA NOT_NAMED 1944-10-11 00:00:00 TS 35.5000 -40.4000 35 hurdat_atl main 1629 1629 O_____________ hurdat_atl AL121944 35.5000 -40.4000 TS 35 0 2 90
1944285N36320 1944 69 NA NA NOT_NAMED 1944-10-11 03:00:00 TS 35.5000 -40.3000 main 1635 1635 P_____________ AL121944 35.5000 -40.3000 TS 35 0 2 90
1944285N36320 1944 69 NA NA NOT_NAMED 1944-10-11 06:00:00 TS 35.5000 -40.2000 35 hurdat_atl main 1640 1640 O_____________ hurdat_atl AL121944 35.5000 -40.2000 TS 35 0 2 90
1944285N36320 1944 69 NA NA NOT_NAMED 1944-10-11 09:00:00 TS 35.5000 -40.1000 main 1646 1646 P_____________ AL121944 35.5000 -40.1000 TS 37 0 2 90
1944285N36320 1944 69 NA NA NOT_NAMED 1944-10-11 12:00:00 TS 35.5000 -40.0000 40 hurdat_atl main 1651 1651 O_____________ hurdat_atl AL121944 35.5000 -40.0000 TS 40 0 2 93
1944285N36320 1944 69 NA NA NOT_NAMED 1944-10-11 15:00:00 TS 35.4925 -39.9000 main 1657 1657 P_____________ AL121944 35.4925 -39.9000 TS 42 0 2 90
1944285N36320 1944 69 NA NA NOT_NAMED 1944-10-11 18:00:00 TS 35.5000 -39.8000 45 hurdat_atl main 1662 1662 O_____________ hurdat_atl AL121944 35.5000 -39.8000 TS 45 0 2 73
1944285N36320 1944 69 NA NA NOT_NAMED 1944-10-11 21:00:00 TS 35.5425 -39.7075 main 1668 1659 P_____________ AL121944 35.5425 -39.7075 TS 47 0 2 58
1944285N36320 1944 69 NA NA NOT_NAMED 1944-10-12 00:00:00 TS 35.6000 -39.6000 50 hurdat_atl main 1664 1664 O_____________ hurdat_atl AL121944 35.6000 -39.6000 TS 50 0 2 65
1944285N36320 1944 69 NA NA NOT_NAMED 1944-10-12 03:00:00 TS 35.6350 -39.4574 main 1670 1667 P_____________ AL121944 35.6350 -39.4574 TS 55 0 3 68
1944285N36320 1944 69 NA NA NOT_NAMED 1944-10-12 06:00:00 TS 35.7000 -39.3000 60 hurdat_atl main 1673 1670 O_____________ hurdat_atl AL121944 35.7000 -39.3000 TS 60 0 3 54
1944285N36320 1944 69 NA NA NOT_NAMED 1944-10-12 09:00:00 TS 35.8125 -39.1573 main 1670 1664 P_____________ AL121944 35.8125 -39.1573 TS 65 1 4 39
1944285N36320 1944 69 NA NA NOT_NAMED 1944-10-12 12:00:00 TS 36.0000 -39.0000 70 hurdat_atl main 1664 1653 O_____________ hurdat_atl AL121944 36.0000 -39.0000 HU 70 1 5 32
1944285N36320 1944 69 NA NA NOT_NAMED 1944-10-12 15:00:00 TS 36.2550 -38.8148 main 1651 1638 P_____________ AL121944 36.2550 -38.8148 HU 70 1 7 28
1944285N36320 1944 69 NA NA NOT_NAMED 1944-10-12 18:00:00 TS 36.6000 -38.6000 70 hurdat_atl main 1638 1618 O_____________ hurdat_atl AL121944 36.6000 -38.6000 HU 70 1 9 25
1944285N36320 1944 69 NA NA NOT_NAMED 1944-10-12 21:00:00 TS 37.0349 -38.3723 main 1618 1597 P_____________ AL121944 37.0349 -38.3723 HU 70 1 10 24
1944285N36320 1944 69 NA NA NOT_NAMED 1944-10-13 00:00:00 TS 37.5000 -38.1000 70 hurdat_atl main 1597 1585 O_____________ hurdat_atl AL121944 37.5000 -38.1000 HU 70 1 10 28
1944285N36320 1944 69 NA NA NOT_NAMED 1944-10-13 03:00:00 TS 37.9149 -37.7797 main 1585 1575 P_____________ AL121944 37.9149 -37.7797 HU 65 1 10 35
1944285N36320 1944 69 NA NA NOT_NAMED 1944-10-13 06:00:00 TS 38.3000 -37.4000 60 hurdat_atl main 1581 1578 O_____________ hurdat_atl AL121944 38.3000 -37.4000 TS 60 0 10 40
1944285N36320 1944 69 NA NA NOT_NAMED 1944-10-13 09:00:00 TS 38.6572 -36.9868 main 1578 1577 P_____________ AL121944 38.6572 -36.9868 TS 55 0 10 45
1944285N36320 1944 69 NA NA NOT_NAMED 1944-10-13 12:00:00 TS 39.0000 -36.5000 50 hurdat_atl main 1590 1590 O_____________ hurdat_atl AL121944 39.0000 -36.5000 TS 50 0 11 49
1944285N36320 1944 69 NA NA NOT_NAMED 1944-10-13 15:00:00 TS 39.3492 -35.9665 main 1604 1604 P_____________ AL121944 39.3492 -35.9665 TS 50 0 12 53
1944285N36320 1944 69 NA NA NOT_NAMED 1944-10-13 18:00:00 TS 39.7000 -35.3000 50 hurdat_atl main 1626 1626 O_____________ hurdat_atl AL121944 39.7000 -35.3000 TS 50 0 13 56
1944285N36320 1944 69 NA NA NOT_NAMED 1944-10-13 21:00:00 TS 40.0522 -34.6073 main 1651 1651 P_____________ AL121944 40.0522 -34.6073 TS 47 0 15 63
1944285N36320 1944 69 NA NA NOT_NAMED 1944-10-14 00:00:00 TS 40.4000 -33.5000 45 hurdat_atl main 1709 1709 O_____________ hurdat_atl AL121944 40.4000 -33.5000 TS 45 0 23 73
1944285N36320 1944 69 NA NA NOT_NAMED 1944-10-14 03:00:00 TS 40.7185 -31.6651 main 1818 1682 P_____________ AL121944 40.7185 -31.6651 TS 45 0 31 79
1944285N36320 1944 69 NA NA NOT_NAMED 1944-10-14 06:00:00 TS 41.0000 -29.5000 45 hurdat_atl main 1674 1503 O_____________ hurdat_atl AL121944 41.0000 -29.5000 TS 45 0 33 79
1944285N36320 1944 69 NA NA NOT_NAMED 1944-10-14 09:00:00 TS 41.3190 -27.3911 main 1495 1344 P_____________ AL121944 41.3190 -27.3911 TS 45 0 30 81
1944285N36320 1944 69 NA NA NOT_NAMED 1944-10-14 12:00:00 TS 41.5000 -25.5000 45 hurdat_atl main 1336 1231 O_____________ hurdat_atl AL121944 41.5000 -25.5000 TS 45 0 25 87
1944285N36320 1944 69 NA NA NOT_NAMED 1944-10-14 15:00:00 TS 41.4352 -24.0980 main 1225 1149 P_____________ AL121944 41.4352 -24.0980 TS 45 0 19 99
1944285N36320 1944 69 NA NA NOT_NAMED 1944-10-14 18:00:00 TS 41.2000 -23.0000 45 hurdat_atl main 1141 1069 O_____________ hurdat_atl AL121944 41.2000 -23.0000 TS 45 0 17 109
1944285N36320 1944 69 NA NA NOT_NAMED 1944-10-14 21:00:00 TS 40.8865 -21.9248 main 1061 998 P_____________ AL121944 40.8865 -21.9248 TS 45 0 17 115
1944285N36320 1944 69 NA NA NOT_NAMED 1944-10-15 00:00:00 TS 40.5000 -21.0000 45 hurdat_atl main 998 935 O_____________ hurdat_atl AL121944 40.5000 -21.0000 TS 45 0 15 121
1944285N36320 1944 69 NA NA NOT_NAMED 1944-10-15 03:00:00 TS 40.0987 -20.2135 main 926 863 P_____________ AL121944 40.0987 -20.2135 TS 47 0 14 125
1944285N36320 1944 69 NA NA NOT_NAMED 1944-10-15 06:00:00 TS 39.7000 -19.5000 50 hurdat_atl main 863 802 O_____________ hurdat_atl AL121944 39.7000 -19.5000 TS 50 0 13 125
1944285N36320 1944 69 NA NA NOT_NAMED 1944-10-15 09:00:00 TS 39.3262 -18.7884 main 802 733 P_____________ AL121944 39.3262 -18.7884 TS 52 0 14 121
1944285N36320 1944 69 NA NA NOT_NAMED 1944-10-15 12:00:00 ET 39.0000 -18.0000 55 hurdat_atl main 733 657 O_____________ hurdat_atl AL121944 39.0000 -18.0000 EX 55 -4 15 114
1944285N36320 1944 69 NA NA NOT_NAMED 1944-10-15 15:00:00 ET 38.7350 -17.0486 main 648 572 P_____________ AL121944 38.7350 -17.0486 EX 55 -4 16 108
1944285N36320 1944 69 NA NA NOT_NAMED 1944-10-15 18:00:00 ET 38.5000 -16.0000 55 hurdat_atl main 563 O_____________ hurdat_atl AL121944 38.5000 -16.0000 EX 55 -4 17 106

About IBTrACS Database

This database is a web-friendly format of International Best Track Archive for Climate Stewardship (IBTrACS), a global best track data archive curated by NOAA dating back to 1842.

Updated: 2021-10-08